« 定点 富山空港 2024/2/12 mon | トップページ | 定点 富山空港他 2024/2/17 sat »

2024/02/13

定点 富山空港他 2024/2/13 tue

今日も始まりは、難破船

RJNT 130100Z 19013G23KT CAVOK 12/M06 Q1028

20240213_iwase_00dongyu

「DONG YU」

20240213_iwase_01dongyu

特に変わりはありません。

20240213_iwase_02taikomaru

監視船「太幸丸」

RJNT 130200Z 18010KT 140V220 CAVOK 14/M05 Q1028

20240213_rjnt_03ja83an

今日は、南風が吹いて暖かくなる春のようなお天気

20240213_rjnt_04ja83an

ANA315 RJTT-RJNT JA83AN B737-881

20240213_rjnt_05ja83an

RJNT 130300Z 19008KT 150V220 CAVOK 16/M05 Q1027

20240213_rjnt_06ja83an

ランナップしましたが、1182の管制圏入り待ち

20240213_rjnt_07ja139t

JA139T 能登に行っていた「つるぎ」さんもダウンウインドで待ち

20240213_rjnt_08hl8316

JJA1154 RKPK-RJAA HL8316 B737-8LC FL350

20240213_rjnt_09p3c

ブーンとイイ音がしたら、P-3Cさん

20240213_rjnt_10ja83an

1182が管制圏に入るところで、デパーチャークリアランス

20240213_rjnt_11ja83an

20240213_rjnt_12ja83an

ANA316 RJNT-RJTT JA83AN B737-881

20240213_rjnt_13ja78an

20240213_rjnt_14ja78an

ANA1182 RJCC-RJNT JA78AN B737-881

20240213_rjnt_15ja78an

この除雪車、まだここに放置プレイ

20240213_rjnt_16ja139t

JA139T↓ AW139 富山県警察

20240213_rjnt_17ja139t

つるぎさん

20240213_rjnt_18ja6516

JA6516↑ AS350B3 AKF

20240213_rjnt_19ja78an

20240213_rjnt_20ja78an

20240213_rjnt_21ja6516

JA6516↓ 

20240213_rjnt_22ja78an

20240213_rjnt_23ja78an

RJNT 130400Z 19009KT 150V230 CAVOK 17/M05 Q1026

20240213_rjnt_24ja78an

ANA1181 RJNT-RJCC JA78AN B737-881

20240213_rjnt_25ja6512

JA6512↑ AS350B3 AKF

RJNT 130500Z 25005KT 230V290 CAVOK 17/M05 Q1025

20240213_rjnt_26ja6512

JA6512↓

20240213_rjnt_27b5801

20240213_rjnt_28b5801

20240213_rjnt_29b5801

CSH825 ZSPD-RJNT B-5801 B737-76D

20240213_rjnt_30b5801

今日は、ほんとにいい眺め

|

« 定点 富山空港 2024/2/12 mon | トップページ | 定点 富山空港他 2024/2/17 sat »

うみ」カテゴリの記事

富山空港」カテゴリの記事

コメント

コメントを書く



(ウェブ上には掲載しません)


コメントは記事投稿者が公開するまで表示されません。



« 定点 富山空港 2024/2/12 mon | トップページ | 定点 富山空港他 2024/2/17 sat »